Time;durP1;ratioP1;P1;durP2;ratioP2;P2;SDS_P1;SDS_P2;PMS_P1;PMS_P2;Temp;Humidity;BMP_temperature;BMP_pressure;BME280_temperature;BME280_humidity;BME280_pressure;Samples;Min_cycle;Max_cycle;Signal;HPM_P1;HPM_P2
2023/10/08 00:01:42;;;;;;;2.65;0.60;;;;;;;;;;5077143;28;20575;-81
2023/10/08 00:04:08;;;;;;;2.17;0.60;;;;;;;;;;5077937;28;20051;-82
2023/10/08 00:06:34;;;;;;;1.25;0.55;;;;;;;;;;5060372;28;20472;-81
2023/10/08 00:09:06;;;;;;;1.67;0.40;;;;;;;;;;5077898;28;20062;-81
2023/10/08 00:11:32;;;;;;;1.65;0.45;;;;;;;;;;5077299;28;20136;-81
2023/10/08 00:14:01;;;;;;;1.58;0.40;;;;;;;;;;5077257;28;20051;-80
2023/10/08 00:16:28;;;;;;;0.88;0.30;;;;;;;;;;5060656;28;20492;-80
2023/10/08 00:18:59;;;;;;;1.10;0.30;;;;;;;;;;5060227;28;20135;-81
2023/10/08 00:21:29;;;;;;;1.08;0.20;;;;;;;;;;5059904;28;20048;-80
2023/10/08 00:23:58;;;;;;;1.08;0.10;;;;;;;;;;5077294;28;20476;-81
2023/10/08 00:26:34;;;;;;;0.43;0.10;;;;;;;;;;5059871;28;20488;-80
2023/10/08 00:29:06;;;;;;;0.82;0.10;;;;;;;;;;5077069;28;20119;-81
2023/10/08 00:31:37;;;;;;;1.00;0.00;;;;;;;;;;5060505;28;20083;-81
2023/10/08 00:34:11;;;;;;;0.40;0.10;;;;;;;;;;5077410;28;20044;-81
2023/10/08 00:36:37;;;;;;;2.67;0.10;;;;;;;;;;5076781;28;20056;-81
2023/10/08 00:39:08;;;;;;;1.58;0.10;;;;;;;;;;5076752;28;20358;-80
2023/10/08 00:41:34;;;;;;;1.13;0.10;;;;;;;;;;5076584;28;20040;-81
2023/10/08 00:44:00;;;;;;;0.75;0.10;;;;;;;;;;5043270;28;20476;-80
2023/10/08 00:46:35;;;;;;;1.52;0.10;;;;;;;;;;5059876;28;20052;-81
2023/10/08 00:49:24;;;;;;;0.80;0.17;;;;;;;;;;5060644;28;20048;-81
2023/10/08 00:54:49;;;;;;;0.47;0.10;;;;;;;;;;5076358;28;20131;-81
2023/10/08 00:57:20;;;;;;;1.40;0.10;;;;;;;;;;5059329;28;20047;-81
2023/10/08 00:59:52;;;;;;;1.08;0.20;;;;;;;;;;5059933;28;20503;-80
2023/10/08 01:02:21;;;;;;;2.70;0.20;;;;;;;;;;5060591;28;20076;-81
2023/10/08 01:04:47;;;;;;;1.33;0.20;;;;;;;;;;5059493;28;20040;-81
2023/10/08 01:07:15;;;;;;;1.33;0.20;;;;;;;;;;5076171;28;20043;-81
2023/10/08 01:09:50;;;;;;;0.32;0.22;;;;;;;;;;5076173;28;20047;-81
2023/10/08 01:12:20;;;;;;;0.63;0.20;;;;;;;;;;5076160;28;20511;-80
2023/10/08 01:14:48;;;;;;;1.70;0.20;;;;;;;;;;5076854;28;20134;-81
2023/10/08 01:17:16;;;;;;;0.75;0.30;;;;;;;;;;5075976;28;20105;-81
2023/10/08 01:19:45;;;;;;;1.08;0.30;;;;;;;;;;5076260;28;20052;-80
2023/10/08 01:22:21;;;;;;;0.63;0.30;;;;;;;;;;5076775;28;20044;-80
2023/10/08 01:24:48;;;;;;;1.35;0.30;;;;;;;;;;5061322;28;20094;-80
2023/10/08 01:27:21;;;;;;;1.42;0.30;;;;;;;;;;5075958;28;20464;-81
2023/10/08 01:29:50;;;;;;;1.58;0.30;;;;;;;;;;5076846;28;20052;-81
2023/10/08 01:32:16;;;;;;;0.55;0.30;;;;;;;;;;5059640;28;20048;-81
2023/10/08 01:34:45;;;;;;;0.52;0.25;;;;;;;;;;5042942;28;20044;-81
2023/10/08 01:37:16;;;;;;;0.50;0.30;;;;;;;;;;5074128;28;20046;-81
2023/10/08 01:39:43;;;;;;;2.47;0.40;;;;;;;;;;5023446;28;20061;-81
2023/10/08 01:42:16;;;;;;;1.52;0.47;;;;;;;;;;5055717;28;20041;-81
2023/10/08 01:44:46;;;;;;;2.55;0.32;;;;;;;;;;5059103;28;20476;-82
2023/10/08 01:47:12;;;;;;;0.45;0.30;;;;;;;;;;5059614;28;20493;-82
2023/10/08 01:49:39;;;;;;;1.77;0.40;;;;;;;;;;5059314;28;20052;-82
2023/10/08 01:52:07;;;;;;;1.83;0.30;;;;;;;;;;5059676;28;20053;-81
2023/10/08 01:54:35;;;;;;;1.75;0.40;;;;;;;;;;5042941;28;20052;-82
2023/10/08 01:57:02;;;;;;;1.05;0.30;;;;;;;;;;5059640;28;20044;-81
2023/10/08 01:59:32;;;;;;;1.15;0.30;;;;;;;;;;5059573;28;20052;-80
2023/10/08 02:01:58;;;;;;;1.48;0.30;;;;;;;;;;5059170;28;20064;-80
2023/10/08 02:04:25;;;;;;;0.65;0.30;;;;;;;;;;5059478;28;20051;-81
2023/10/08 02:06:51;;;;;;;0.60;0.30;;;;;;;;;;5059463;28;20045;-81
2023/10/08 02:09:19;;;;;;;2.13;0.30;;;;;;;;;;5060259;28;20094;-81
2023/10/08 02:11:53;;;;;;;0.88;0.28;;;;;;;;;;5059179;28;20512;-81
2023/10/08 02:14:20;;;;;;;1.10;0.30;;;;;;;;;;5059600;28;20489;-81
2023/10/08 02:16:46;;;;;;;0.60;0.30;;;;;;;;;;5059193;28;20057;-82
2023/10/08 02:19:13;;;;;;;3.60;0.63;;;;;;;;;;5042931;28;20106;-81
2023/10/08 02:21:39;;;;;;;0.85;0.30;;;;;;;;;;5026192;28;20051;-81
2023/10/08 02:24:07;;;;;;;1.08;0.30;;;;;;;;;;5042591;28;20503;-81
2023/10/08 02:26:34;;;;;;;1.30;0.38;;;;;;;;;;5059881;28;20178;-81
2023/10/08 02:29:01;;;;;;;0.80;0.40;;;;;;;;;;5059021;28;20378;-80
2023/10/08 02:31:27;;;;;;;0.80;0.50;;;;;;;;;;5025866;28;20045;-81
2023/10/08 02:33:54;;;;;;;1.10;0.32;;;;;;;;;;5042182;28;20044;-81
2023/10/08 02:36:20;;;;;;;1.80;0.40;;;;;;;;;;5058562;28;20102;-81
2023/10/08 02:38:46;;;;;;;1.30;0.40;;;;;;;;;;5072909;28;20500;-81
2023/10/08 02:41:18;;;;;;;0.52;0.40;;;;;;;;;;5078894;28;20105;-81
2023/10/08 02:43:45;;;;;;;0.98;0.30;;;;;;;;;;5078860;28;20094;-80
2023/10/08 02:46:15;;;;;;;1.00;0.40;;;;;;;;;;5078715;28;20450;-80
2023/10/08 02:48:41;;;;;;;2.65;0.40;;;;;;;;;;5079641;28;20050;-80
2023/10/08 02:51:14;;;;;;;2.67;0.47;;;;;;;;;;5062059;28;20040;-80
2023/10/08 02:53:43;;;;;;;0.80;0.30;;;;;;;;;;5062259;28;20066;-80
2023/10/08 02:56:13;;;;;;;0.52;0.40;;;;;;;;;;5078076;28;20047;-81
2023/10/08 02:58:47;;;;;;;2.15;0.43;;;;;;;;;;5078396;28;20044;-81
2023/10/08 03:01:14;;;;;;;1.80;0.47;;;;;;;;;;5078487;28;20127;-81
2023/10/08 03:03:41;;;;;;;1.48;0.40;;;;;;;;;;5062538;28;20488;-81
2023/10/08 03:06:14;;;;;;;0.98;0.32;;;;;;;;;;5061721;28;20048;-80
2023/10/08 03:08:41;;;;;;;0.90;0.50;;;;;;;;;;5078651;28;20058;-81
2023/10/08 03:11:17;;;;;;;1.30;0.40;;;;;;;;;;5078081;28;20083;-82
2023/10/08 03:13:46;;;;;;;0.70;0.50;;;;;;;;;;5078635;28;20054;-81
2023/10/08 03:16:15;;;;;;;1.42;0.55;;;;;;;;;;5078143;28;20551;-80
2023/10/08 03:18:44;;;;;;;1.55;0.47;;;;;;;;;;5078475;28;20076;-80
2023/10/08 03:21:42;;;;;;;1.25;0.40;;;;;;;;;;5061702;28;20384;-80
2023/10/08 03:24:41;;;;;;;1.52;0.40;;;;;;;;;;5065746;28;20127;-81
2023/10/08 03:27:12;;;;;;;2.65;0.52;;;;;;;;;;5073991;28;20059;-80
2023/10/08 03:29:44;;;;;;;0.80;0.50;;;;;;;;;;5062090;28;20062;-80
2023/10/08 03:32:17;;;;;;;3.42;0.40;;;;;;;;;;5061542;28;20123;-80
2023/10/08 03:34:47;;;;;;;1.02;0.40;;;;;;;;;;5077865;28;20048;-81
2023/10/08 03:37:20;;;;;;;1.25;0.30;;;;;;;;;;5061050;28;20047;-81
2023/10/08 03:40:00;;;;;;;1.60;0.40;;;;;;;;;;5058548;28;20147;-80
2023/10/08 03:42:34;;;;;;;1.05;0.50;;;;;;;;;;5057479;28;20041;-80
2023/10/08 03:45:10;;;;;;;1.33;0.57;;;;;;;;;;5041894;28;20048;-80
2023/10/08 03:47:46;;;;;;;2.42;0.40;;;;;;;;;;5057222;28;20045;-80
2023/10/08 03:50:17;;;;;;;2.08;0.50;;;;;;;;;;5058433;28;20058;-80
2023/10/08 03:52:44;;;;;;;2.25;0.60;;;;;;;;;;5041142;28;20052;-80
2023/10/08 03:55:20;;;;;;;1.42;0.68;;;;;;;;;;5057654;28;20071;-80
2023/10/08 03:57:49;;;;;;;1.05;0.40;;;;;;;;;;5041029;28;20059;-80
2023/10/08 04:00:18;;;;;;;0.75;0.55;;;;;;;;;;5057559;28;20068;-80
2023/10/08 04:03:00;;;;;;;1.83;0.60;;;;;;;;;;5041040;28;20055;-80
2023/10/08 04:05:43;;;;;;;1.55;0.70;;;;;;;;;;5042610;28;20052;-80
2023/10/08 04:08:24;;;;;;;1.42;0.50;;;;;;;;;;5040708;28;20055;-80
2023/10/08 04:11:07;;;;;;;2.92;0.55;;;;;;;;;;5057438;28;20052;-79
2023/10/08 04:13:34;;;;;;;2.35;0.60;;;;;;;;;;5057259;28;20049;-80
2023/10/08 04:16:00;;;;;;;2.55;0.73;;;;;;;;;;5056805;28;20083;-80
2023/10/08 04:18:27;;;;;;;3.08;0.50;;;;;;;;;;5056583;28;20052;-80
2023/10/08 04:21:04;;;;;;;2.00;0.80;;;;;;;;;;5056932;28;20045;-80
2023/10/08 04:23:31;;;;;;;2.88;0.77;;;;;;;;;;5056617;28;20127;-80
2023/10/08 04:25:57;;;;;;;1.33;0.60;;;;;;;;;;5056825;28;20045;-80
2023/10/08 04:28:28;;;;;;;1.80;0.80;;;;;;;;;;5040416;28;20450;-81
2023/10/08 04:31:00;;;;;;;1.92;0.70;;;;;;;;;;5057049;28;20131;-79
2023/10/08 04:33:26;;;;;;;1.80;0.57;;;;;;;;;;5056717;28;20044;-81
2023/10/08 04:35:55;;;;;;;1.05;0.70;;;;;;;;;;5056918;28;20389;-80
2023/10/08 04:38:23;;;;;;;1.20;0.60;;;;;;;;;;5032703;28;20412;-80
2023/10/08 04:40:53;;;;;;;1.58;0.50;;;;;;;;;;5077063;28;20586;-80
2023/10/08 04:43:27;;;;;;;1.65;1.10;;;;;;;;;;5076260;28;20044;-80
2023/10/08 04:46:19;;;;;;;1.75;0.70;;;;;;;;;;5076449;28;20143;-81
2023/10/08 04:48:52;;;;;;;3.25;0.55;;;;;;;;;;5076426;28;20040;-81
2023/10/08 04:51:21;;;;;;;2.78;0.80;;;;;;;;;;5059751;28;20044;-81
2023/10/08 04:53:47;;;;;;;2.55;0.60;;;;;;;;;;5076319;28;20083;-80
2023/10/08 04:56:18;;;;;;;2.28;0.82;;;;;;;;;;5076329;28;20059;-79
2023/10/08 04:58:48;;;;;;;1.58;0.75;;;;;;;;;;5059610;28;20101;-80
2023/10/08 05:01:18;;;;;;;2.90;1.13;;;;;;;;;;5059561;28;20139;-79
2023/10/08 05:03:55;;;;;;;2.10;1.13;;;;;;;;;;5076906;28;20051;-80
2023/10/08 05:06:49;;;;;;;1.00;0.70;;;;;;;;;;5076536;28;20055;-79
2023/10/08 05:17:09;;;;;;;3.13;1.48;;;;;;;;;;5061334;28;20365;-79
2023/10/08 05:25:24;;;;;;;1.38;0.82;;;;;;;;;;5076009;28;20142;-79
2023/10/08 05:30:28;;;;;;;1.65;0.88;;;;;;;;;;5076204;28;20062;-79
2023/10/08 05:38:37;;;;;;;1.42;0.80;;;;;;;;;;5075638;28;20464;-78
2023/10/08 05:59:39;;;;;;;1.63;0.60;;;;;;;;;;5075601;28;20055;-78
2023/10/08 06:13:43;;;;;;;3.80;0.80;;;;;;;;;;5075523;28;20056;-78
2023/10/08 06:16:13;;;;;;;2.20;0.63;;;;;;;;;;5075685;28;20456;-79
2023/10/08 06:18:39;;;;;;;3.40;0.75;;;;;;;;;;5058710;28;20047;-79
2023/10/08 06:21:11;;;;;;;2.60;0.70;;;;;;;;;;5058801;28;20105;-79
2023/10/08 06:23:38;;;;;;;1.85;0.50;;;;;;;;;;5059305;28;20048;-79
2023/10/08 06:28:38;;;;;;;6.00;0.88;;;;;;;;;;5075688;28;20098;-78
2023/10/08 06:31:11;;;;;;;5.10;0.60;;;;;;;;;;5061910;28;20108;-79
2023/10/08 06:33:38;;;;;;;2.85;1.10;;;;;;;;;;5079858;28;20094;-79
2023/10/08 06:36:15;;;;;;;2.25;0.70;;;;;;;;;;5062541;28;20070;-78
2023/10/08 06:38:42;;;;;;;2.80;0.80;;;;;;;;;;5063656;28;20056;-78
2023/10/08 06:41:15;;;;;;;2.72;0.70;;;;;;;;;;5062146;28;20048;-79
2023/10/08 06:44:03;;;;;;;5.40;0.55;;;;;;;;;;5062743;28;20130;-79
2023/10/08 06:46:32;;;;;;;4.15;0.55;;;;;;;;;;5078420;28;20040;-78
2023/10/08 06:49:11;;;;;;;2.83;0.50;;;;;;;;;;5062256;28;20043;-79
2023/10/08 06:51:37;;;;;;;2.92;0.50;;;;;;;;;;5078673;28;20052;-78
2023/10/08 06:54:09;;;;;;;5.03;0.45;;;;;;;;;;5062853;28;20051;-79
2023/10/08 06:56:35;;;;;;;5.93;0.60;;;;;;;;;;5062272;28;20052;-78
2023/10/08 06:59:03;;;;;;;2.33;0.43;;;;;;;;;;5078594;28;20098;-78
2023/10/08 07:01:47;;;;;;;5.30;0.55;;;;;;;;;;5078367;28;20135;-78
2023/10/08 07:04:13;;;;;;;7.97;0.57;;;;;;;;;;5078812;28;20047;-78
2023/10/08 07:06:40;;;;;;;3.40;0.57;;;;;;;;;;5078629;28;20043;-78
2023/10/08 07:09:22;;;;;;;5.15;0.65;;;;;;;;;;5078043;28;20059;-78
2023/10/08 07:11:49;;;;;;;2.40;0.30;;;;;;;;;;5078526;28;20391;-79
2023/10/08 07:14:15;;;;;;;9.13;0.70;;;;;;;;;;5078777;28;20056;-79
2023/10/08 07:16:41;;;;;;;3.97;0.65;;;;;;;;;;5078383;28;20083;-80
2023/10/08 07:19:17;;;;;;;1.67;0.40;;;;;;;;;;5061733;28;20051;-78
2023/10/08 07:21:47;;;;;;;3.65;0.52;;;;;;;;;;5061598;28;20052;-78
2023/10/08 07:24:21;;;;;;;3.08;0.40;;;;;;;;;;5077681;28;20040;-79
2023/10/08 07:26:49;;;;;;;4.55;0.57;;;;;;;;;;5061663;28;20055;-79
2023/10/08 07:29:19;;;;;;;4.85;0.50;;;;;;;;;;5061330;28;20040;-80
2023/10/08 07:31:55;;;;;;;5.22;0.80;;;;;;;;;;5078623;28;20126;-78
2023/10/08 07:36:51;;;;;;;8.68;0.70;;;;;;;;;;5061726;28;20055;-77
2023/10/08 07:39:25;;;;;;;5.55;0.55;;;;;;;;;;5077178;28;20078;-78
2023/10/08 07:41:51;;;;;;;3.47;0.50;;;;;;;;;;5076933;28;20486;-78
2023/10/08 07:44:21;;;;;;;5.22;0.40;;;;;;;;;;5077353;28;20050;-78
2023/10/08 07:46:49;;;;;;;4.55;0.40;;;;;;;;;;5077540;28;20052;-79
2023/10/08 07:49:15;;;;;;;5.20;0.50;;;;;;;;;;5077279;28;20040;-79
2023/10/08 07:51:41;;;;;;;2.75;0.30;;;;;;;;;;5060647;28;20093;-79
2023/10/08 07:54:10;;;;;;;7.00;0.40;;;;;;;;;;5060726;28;20048;-79
2023/10/08 07:56:37;;;;;;;5.65;0.30;;;;;;;;;;5060532;28;20090;-79
2023/10/08 07:59:08;;;;;;;6.40;0.43;;;;;;;;;;5060843;28;20051;-79
2023/10/08 08:01:35;;;;;;;6.07;0.40;;;;;;;;;;5077191;28;20044;-79
2023/10/08 08:04:01;;;;;;;5.53;0.40;;;;;;;;;;5077129;28;20365;-78
2023/10/08 08:06:27;;;;;;;4.97;0.40;;;;;;;;;;5076947;28;20047;-78
2023/10/08 08:08:55;;;;;;;4.00;0.45;;;;;;;;;;5060457;28;20525;-79
2023/10/08 08:11:26;;;;;;;8.38;0.40;;;;;;;;;;5076941;28;20127;-78
2023/10/08 08:13:52;;;;;;;6.10;0.45;;;;;;;;;;5061929;28;20055;-79
2023/10/08 08:16:20;;;;;;;8.93;0.50;;;;;;;;;;5060097;28;20047;-80
2023/10/08 08:18:48;;;;;;;4.88;0.40;;;;;;;;;;5061316;28;20101;-80
2023/10/08 08:21:19;;;;;;;2.70;0.50;;;;;;;;;;5076746;28;20105;-80
2023/10/08 08:23:48;;;;;;;3.90;0.50;;;;;;;;;;5076595;28;20122;-80
2023/10/08 08:26:26;;;;;;;7.60;0.50;;;;;;;;;;5077478;28;20407;-79
2023/10/08 08:28:54;;;;;;;5.93;0.50;;;;;;;;;;5076972;28;20040;-80
2023/10/08 08:31:20;;;;;;;8.07;0.77;;;;;;;;;;5076536;28;20052;-79
2023/10/08 08:33:52;;;;;;;7.22;0.57;;;;;;;;;;5077432;28;20052;-79
2023/10/08 08:36:19;;;;;;;5.78;0.47;;;;;;;;;;5076783;28;20044;-79
2023/10/08 08:38:45;;;;;;;4.93;0.40;;;;;;;;;;5075983;28;20461;-80
2023/10/08 08:41:13;;;;;;;8.35;0.75;;;;;;;;;;5076615;28;20048;-79
2023/10/08 08:43:44;;;;;;;7.95;0.65;;;;;;;;;;5043101;28;20089;-78
2023/10/08 08:46:12;;;;;;;6.05;0.50;;;;;;;;;;5076239;28;20498;-78
2023/10/08 08:48:44;;;;;;;2.65;0.40;;;;;;;;;;5076201;28;20048;-80
2023/10/08 08:51:11;;;;;;;5.90;0.45;;;;;;;;;;5076205;28;20051;-79
2023/10/08 08:53:37;;;;;;;4.75;0.40;;;;;;;;;;5075977;28;20051;-79
2023/10/08 08:56:06;;;;;;;6.90;0.45;;;;;;;;;;5059699;28;20373;-80
2023/10/08 08:58:33;;;;;;;6.38;0.73;;;;;;;;;;5075847;28;20076;-80
2023/10/08 09:01:00;;;;;;;4.13;0.43;;;;;;;;;;5075821;28;20047;-79
2023/10/08 09:03:32;;;;;;;4.35;0.43;;;;;;;;;;5076824;28;20048;-79
2023/10/08 09:05:59;;;;;;;4.85;0.63;;;;;;;;;;5059557;28;20052;-80
2023/10/08 09:08:31;;;;;;;6.28;0.75;;;;;;;;;;5059581;28;20055;-80
2023/10/08 09:11:04;;;;;;;6.05;0.68;;;;;;;;;;5076166;28;20431;-80
2023/10/08 09:13:32;;;;;;;6.88;0.50;;;;;;;;;;5076171;28;20130;-79
2023/10/08 09:16:19;;;;;;;6.97;0.60;;;;;;;;;;5076915;28;20048;-79
2023/10/08 09:18:45;;;;;;;5.57;0.43;;;;;;;;;;5076072;28;20048;-79
2023/10/08 09:21:12;;;;;;;5.68;0.50;;;;;;;;;;5076872;28;20178;-79
2023/10/08 09:23:47;;;;;;;4.35;0.40;;;;;;;;;;5059070;28;20040;-79
2023/10/08 09:26:14;;;;;;;7.57;0.57;;;;;;;;;;5076375;28;20056;-79
2023/10/08 09:28:46;;;;;;;3.97;0.50;;;;;;;;;;5042873;28;20040;-79
2023/10/08 09:31:13;;;;;;;10.48;0.57;;;;;;;;;;5059274;28;20087;-79
2023/10/08 09:33:40;;;;;;;7.05;0.40;;;;;;;;;;5059698;28;20063;-79
2023/10/08 09:36:10;;;;;;;4.95;0.45;;;;;;;;;;5075812;28;20117;-79
2023/10/08 09:38:37;;;;;;;7.10;0.45;;;;;;;;;;5075879;28;20408;-79
2023/10/08 09:41:03;;;;;;;7.43;0.80;;;;;;;;;;5075807;28;20091;-79
2023/10/08 09:43:32;;;;;;;6.65;0.60;;;;;;;;;;5075475;28;20472;-78
2023/10/08 09:46:06;;;;;;;4.97;0.50;;;;;;;;;;5059393;28;20048;-79
2023/10/08 09:48:34;;;;;;;5.45;0.50;;;;;;;;;;5059879;28;20051;-78
2023/10/08 09:51:00;;;;;;;8.30;0.45;;;;;;;;;;5075615;28;20050;-78
2023/10/08 09:53:32;;;;;;;4.97;0.45;;;;;;;;;;5058950;28;20130;-78
2023/10/08 09:55:58;;;;;;;4.93;0.30;;;;;;;;;;5058743;28;20047;-79
2023/10/08 09:58:26;;;;;;;4.70;0.50;;;;;;;;;;5075581;28;20499;-79
2023/10/08 10:00:53;;;;;;;3.85;0.35;;;;;;;;;;5075801;28;20048;-78
2023/10/08 10:03:20;;;;;;;4.68;0.30;;;;;;;;;;5076042;28;20073;-78
2023/10/08 10:05:48;;;;;;;5.63;0.50;;;;;;;;;;5061958;28;20468;-79
2023/10/08 10:08:15;;;;;;;6.22;0.57;;;;;;;;;;5079760;28;20436;-79
2023/10/08 10:10:45;;;;;;;6.75;0.70;;;;;;;;;;5062709;28;20512;-79
2023/10/08 10:13:11;;;;;;;4.50;0.50;;;;;;;;;;5079099;28;20052;-80
2023/10/08 10:15:38;;;;;;;6.30;0.65;;;;;;;;;;5079580;28;20050;-78
2023/10/08 10:18:14;;;;;;;5.85;0.57;;;;;;;;;;5079932;28;20047;-79
2023/10/08 10:20:41;;;;;;;3.38;0.38;;;;;;;;;;5062656;28;20488;-78
2023/10/08 10:23:37;;;;;;;6.82;0.60;;;;;;;;;;5079176;28;20044;-78
2023/10/08 10:26:04;;;;;;;5.90;0.40;;;;;;;;;;5045372;28;20052;-79
2023/10/08 10:28:30;;;;;;;4.57;0.50;;;;;;;;;;5079045;28;20126;-78
2023/10/08 10:30:56;;;;;;;8.32;0.70;;;;;;;;;;5061975;28;20055;-78
2023/10/08 10:33:30;;;;;;;3.80;0.40;;;;;;;;;;5061927;28;20040;-79
2023/10/08 10:35:56;;;;;;;4.63;0.52;;;;;;;;;;5062606;28;20056;-79
2023/10/08 10:38:26;;;;;;;4.65;0.60;;;;;;;;;;5062143;28;20052;-79
2023/10/08 10:40:58;;;;;;;5.10;0.38;;;;;;;;;;5078807;28;20040;-79
2023/10/08 10:43:33;;;;;;;4.70;0.50;;;;;;;;;;5079304;28;20434;-78
2023/10/08 10:46:24;;;;;;;5.97;0.57;;;;;;;;;;5079037;28;20136;-78
2023/10/08 10:49:04;;;;;;;6.68;0.47;;;;;;;;;;5078251;28;20117;-79
2023/10/08 10:51:36;;;;;;;;;;;;;;;;;;5062731;28;20047;-79
2023/10/08 10:54:07;;;;;;;7.85;0.60;;;;;;;;;;5078933;28;20022;-78
2023/10/08 10:56:42;;;;;;;7.65;0.40;;;;;;;;;;5046015;28;20097;-79
2023/10/08 10:59:27;;;;;;;4.82;0.60;;;;;;;;;;5078527;28;20051;-78
2023/10/08 11:02:08;;;;;;;8.55;0.50;;;;;;;;;;5079303;28;20048;-79
2023/10/08 11:05:19;;;;;;;7.50;0.80;;;;;;;;;;5061746;28;20044;-79
2023/10/08 11:07:29;;;;;;;5.53;0.68;;;;;;;;;;5073329;28;20093;-79
2023/10/08 11:09:55;;;;;;;3.60;0.50;;;;;;;;;;5061695;28;20071;-79
2023/10/08 11:12:32;;;;;;;4.18;0.40;;;;;;;;;;5061670;28;20048;-79
2023/10/08 11:14:58;;;;;;;6.82;0.60;;;;;;;;;;5047195;28;20047;-79
2023/10/08 11:17:26;;;;;;;4.97;0.60;;;;;;;;;;5077788;28;20044;-79
2023/10/08 11:19:53;;;;;;;5.15;0.60;;;;;;;;;;5078931;28;20135;-79
2023/10/08 11:22:22;;;;;;;8.35;0.85;;;;;;;;;;5077949;28;20051;-79
2023/10/08 11:24:53;;;;;;;7.57;0.73;;;;;;;;;;5061307;28;20138;-79
2023/10/08 11:27:29;;;;;;;5.82;0.90;;;;;;;;;;5061622;28;20047;-79
2023/10/08 11:29:57;;;;;;;5.88;0.40;;;;;;;;;;5078036;28;20131;-79
2023/10/08 11:32:27;;;;;;;6.07;0.40;;;;;;;;;;5077304;28;20052;-78
2023/10/08 11:34:59;;;;;;;6.15;0.40;;;;;;;;;;5077853;28;20079;-79
2023/10/08 11:37:29;;;;;;;6.60;0.60;;;;;;;;;;5076405;28;20051;-79
2023/10/08 11:39:59;;;;;;;5.78;0.75;;;;;;;;;;5058655;28;20053;-79
2023/10/08 11:45:17;;;;;;;7.60;0.85;;;;;;;;;;5042769;28;20041;-79
2023/10/08 11:47:44;;;;;;;6.40;0.80;;;;;;;;;;5041712;28;20048;-79
2023/10/08 11:50:16;;;;;;;6.88;0.52;;;;;;;;;;5057583;28;20507;-78
2023/10/08 11:52:42;;;;;;;3.33;0.75;;;;;;;;;;5057242;28;20056;-78
2023/10/08 11:55:09;;;;;;;6.30;0.50;;;;;;;;;;5040883;28;20045;-78
2023/10/08 11:57:35;;;;;;;6.57;0.50;;;;;;;;;;5057351;28;20488;-78
2023/10/08 12:00:18;;;;;;;5.97;0.60;;;;;;;;;;5057198;28;20044;-78
2023/10/08 12:02:45;;;;;;;6.32;0.45;;;;;;;;;;5057504;28;20048;-78
2023/10/08 12:05:18;;;;;;;5.55;0.47;;;;;;;;;;5040576;28;20178;-78
2023/10/08 12:07:46;;;;;;;6.33;0.63;;;;;;;;;;5042545;28;20084;-79
2023/10/08 12:10:13;;;;;;;4.28;0.85;;;;;;;;;;5041135;28;20465;-78
2023/10/08 12:12:40;;;;;;;6.40;0.68;;;;;;;;;;5040357;28;20153;-79
2023/10/08 12:15:09;;;;;;;5.18;0.50;;;;;;;;;;5057022;28;20504;-79
2023/10/08 12:17:39;;;;;;;3.03;0.40;;;;;;;;;;5056937;28;20056;-79
2023/10/08 12:20:22;;;;;;;7.55;0.40;;;;;;;;;;5057734;28;20127;-79
2023/10/08 12:22:49;;;;;;;4.03;0.50;;;;;;;;;;5040986;28;20460;-78
2023/10/08 12:25:15;;;;;;;3.90;0.50;;;;;;;;;;5057139;28;20075;-78
2023/10/08 12:27:41;;;;;;;2.75;0.40;;;;;;;;;;5056217;28;20045;-79
2023/10/08 12:30:11;;;;;;;4.30;0.43;;;;;;;;;;5041055;28;20102;-78
2023/10/08 12:32:41;;;;;;;7.68;0.52;;;;;;;;;;5056371;28;20063;-79
2023/10/08 12:35:12;;;;;;;4.65;0.47;;;;;;;;;;5056646;28;20541;-78
2023/10/08 12:37:44;;;;;;;5.25;0.43;;;;;;;;;;5056901;28;20052;-78
2023/10/08 12:40:22;;;;;;;7.13;0.40;;;;;;;;;;5056799;28;20063;-78
2023/10/08 12:42:50;;;;;;;3.00;0.47;;;;;;;;;;5057323;28;20357;-78
2023/10/08 12:45:20;;;;;;;4.60;0.40;;;;;;;;;;5039936;28;20239;-78
2023/10/08 12:47:50;;;;;;;5.07;0.57;;;;;;;;;;5056655;28;20088;-78
2023/10/08 12:50:17;;;;;;;3.88;0.40;;;;;;;;;;5056379;28;20045;-78
2023/10/08 12:52:54;;;;;;;5.65;0.55;;;;;;;;;;5056434;28;20048;-78
2023/10/08 12:55:24;;;;;;;5.45;0.40;;;;;;;;;;5041938;28;20052;-79
2023/10/08 12:58:05;;;;;;;4.25;0.35;;;;;;;;;;5056002;28;20090;-78
2023/10/08 13:00:32;;;;;;;7.72;0.40;;;;;;;;;;5040491;28;20048;-78
2023/10/08 13:03:01;;;;;;;5.55;0.47;;;;;;;;;;5039449;28;20037;-78
2023/10/08 13:05:27;;;;;;;5.30;0.40;;;;;;;;;;5056373;28;20044;-78
2023/10/08 13:08:03;;;;;;;2.75;0.30;;;;;;;;;;5039596;28;20048;-78
2023/10/08 13:10:31;;;;;;;3.53;0.30;;;;;;;;;;5057006;28;20071;-78
2023/10/08 13:12:57;;;;;;;4.45;0.55;;;;;;;;;;5056156;28;20561;-78
2023/10/08 13:15:25;;;;;;;3.85;0.40;;;;;;;;;;5039462;28;20077;-78
2023/10/08 13:17:55;;;;;;;5.13;0.40;;;;;;;;;;5055821;28;20048;-78
2023/10/08 13:20:21;;;;;;;4.32;0.40;;;;;;;;;;5055982;28;20488;-78
2023/10/08 13:22:47;;;;;;;4.47;0.50;;;;;;;;;;5055859;28;20044;-78
2023/10/08 13:25:16;;;;;;;3.72;0.40;;;;;;;;;;5039322;28;20052;-78
2023/10/08 13:27:43;;;;;;;3.28;0.40;;;;;;;;;;5055877;28;20052;-78
2023/10/08 13:30:10;;;;;;;4.57;0.50;;;;;;;;;;5055891;28;20162;-79
2023/10/08 13:32:36;;;;;;;7.45;0.40;;;;;;;;;;5056117;28;20049;-78
2023/10/08 13:35:07;;;;;;;3.83;0.30;;;;;;;;;;5055900;28;20131;-78
2023/10/08 13:37:36;;;;;;;4.20;0.47;;;;;;;;;;5055732;28;20044;-78
2023/10/08 13:40:03;;;;;;;3.15;0.30;;;;;;;;;;5057483;28;20052;-79
2023/10/08 13:42:29;;;;;;;3.80;0.30;;;;;;;;;;5059793;28;20048;-80
2023/10/08 13:44:59;;;;;;;2.35;0.40;;;;;;;;;;5059776;28;20430;-78
2023/10/08 13:47:28;;;;;;;3.72;0.40;;;;;;;;;;5059826;28;20060;-78
2023/10/08 13:49:54;;;;;;;3.13;0.38;;;;;;;;;;5059695;28;20097;-78
2023/10/08 13:52:21;;;;;;;3.38;0.30;;;;;;;;;;5043057;28;20048;-78
2023/10/08 13:54:51;;;;;;;3.30;0.32;;;;;;;;;;5059810;28;20091;-78
2023/10/08 13:57:19;;;;;;;5.25;0.60;;;;;;;;;;5059475;28;20074;-80
2023/10/08 13:59:46;;;;;;;4.30;0.47;;;;;;;;;;5060072;28;20053;-79
2023/10/08 14:02:15;;;;;;;3.67;0.68;;;;;;;;;;5059345;28;20064;-78
2023/10/08 14:04:43;;;;;;;3.78;0.60;;;;;;;;;;5059693;28;20062;-79
2023/10/08 14:07:16;;;;;;;3.92;0.50;;;;;;;;;;5042767;28;20056;-79
2023/10/08 14:09:45;;;;;;;3.83;0.60;;;;;;;;;;5060209;28;20048;-79
2023/10/08 14:12:11;;;;;;;3.05;0.68;;;;;;;;;;5058810;28;20049;-79
2023/10/08 14:14:41;;;;;;;7.30;0.60;;;;;;;;;;5042331;28;20088;-80
2023/10/08 14:17:07;;;;;;;3.25;0.68;;;;;;;;;;5059023;28;20048;-80
2023/10/08 14:19:39;;;;;;;5.45;0.60;;;;;;;;;;5059357;28;20489;-80
2023/10/08 14:22:08;;;;;;;4.22;0.60;;;;;;;;;;5059337;28;20040;-80
2023/10/08 14:24:37;;;;;;;4.97;0.50;;;;;;;;;;5059751;28;20110;-80
2023/10/08 14:27:09;;;;;;;4.78;0.70;;;;;;;;;;5026744;28;20044;-80
2023/10/08 14:29:38;;;;;;;5.72;0.63;;;;;;;;;;5059207;28;20089;-80
2023/10/08 14:32:08;;;;;;;5.00;0.55;;;;;;;;;;5043322;28;20056;-80
2023/10/08 14:42:55;;;;;;;9.75;0.95;;;;;;;;;;5045073;28;20076;-80
2023/10/08 14:45:22;;;;;;;4.95;0.57;;;;;;;;;;5059171;28;20040;-81
2023/10/08 14:47:50;;;;;;;4.97;0.63;;;;;;;;;;5058758;28;20052;-80
2023/10/08 14:50:16;;;;;;;4.55;0.40;;;;;;;;;;5041645;28;20101;-80
2023/10/08 14:52:46;;;;;;;5.50;0.60;;;;;;;;;;5058724;28;20055;-79
2023/10/08 14:55:13;;;;;;;3.42;0.60;;;;;;;;;;5059526;28;20045;-80
2023/10/08 14:57:41;;;;;;;8.48;0.77;;;;;;;;;;5041870;28;20044;-79
2023/10/08 15:00:09;;;;;;;7.57;0.70;;;;;;;;;;5041931;28;20044;-81
2023/10/08 15:02:35;;;;;;;6.97;0.75;;;;;;;;;;5041733;28;20040;-80
2023/10/08 15:05:01;;;;;;;4.95;0.68;;;;;;;;;;5058528;28;20123;-80
2023/10/08 15:07:31;;;;;;;3.22;0.40;;;;;;;;;;5025144;28;20040;-80
2023/10/08 15:09:57;;;;;;;5.32;1.05;;;;;;;;;;5058178;28;20377;-80
2023/10/08 15:12:25;;;;;;;4.68;0.70;;;;;;;;;;5042028;28;20047;-80
2023/10/08 15:14:51;;;;;;;3.72;0.43;;;;;;;;;;5041647;28;20102;-80
2023/10/08 15:17:18;;;;;;;3.70;0.45;;;;;;;;;;5041282;28;20051;-81
2023/10/08 15:19:46;;;;;;;3.47;0.60;;;;;;;;;;5057931;28;20036;-80
2023/10/08 15:22:12;;;;;;;5.63;1.10;;;;;;;;;;5058359;28;20435;-80
2023/10/08 15:24:40;;;;;;;6.10;0.80;;;;;;;;;;5057753;28;20055;-81
2023/10/08 15:27:06;;;;;;;3.97;0.65;;;;;;;;;;5057780;28;20040;-81
2023/10/08 15:29:33;;;;;;;3.95;1.27;;;;;;;;;;5058042;28;20040;-81
2023/10/08 15:31:59;;;;;;;4.40;1.05;;;;;;;;;;5057972;28;20079;-81
2023/10/08 15:34:26;;;;;;;3.80;1.02;;;;;;;;;;5057978;28;20062;-81
2023/10/08 15:36:56;;;;;;;5.40;1.75;;;;;;;;;;5041234;28;20071;-80
2023/10/08 15:39:22;;;;;;;8.65;1.90;;;;;;;;;;5075264;28;20147;-79
2023/10/08 15:41:49;;;;;;;8.23;2.88;;;;;;;;;;5060974;28;20051;-79
2023/10/08 15:44:17;;;;;;;5.18;0.93;;;;;;;;;;5077459;28;20061;-80
2023/10/08 15:46:44;;;;;;;6.22;1.10;;;;;;;;;;5060923;28;20079;-80
2023/10/08 15:49:11;;;;;;;3.92;0.60;;;;;;;;;;5078010;28;20098;-78
2023/10/08 15:51:37;;;;;;;4.38;0.68;;;;;;;;;;5077641;28;20052;-79
2023/10/08 15:54:05;;;;;;;5.60;0.85;;;;;;;;;;5061219;28;20079;-79
2023/10/08 15:56:31;;;;;;;3.85;0.60;;;;;;;;;;5077760;28;20084;-79
2023/10/08 15:58:57;;;;;;;5.15;1.00;;;;;;;;;;5060854;28;20488;-81
2023/10/08 16:01:26;;;;;;;7.30;0.93;;;;;;;;;;5060304;28;20143;-80
2023/10/08 16:03:52;;;;;;;5.32;0.60;;;;;;;;;;5076581;28;20040;-80
2023/10/08 16:06:18;;;;;;;5.32;0.45;;;;;;;;;;5060622;28;20055;-80
2023/10/08 16:08:45;;;;;;;4.68;0.50;;;;;;;;;;5077187;28;20051;-80
2023/10/08 16:11:11;;;;;;;3.60;0.80;;;;;;;;;;5060651;28;20047;-78